UGSBURMM

Guest
Details From UGSB - BATUMI
To URMM - MINERALNYYE VODY
Flight Number -
Tags decoded
Created
Modified
Stats Distance 310 nm / 573 km
Max Altitude 0 ft / 0 m
Waypoints 7
Social Downloads 1
Likes 0
Share VATSIM

Download

Looking for another format? Having issues loading an existing format? Contact us
Advertisement - Login to hide

Notes

Requested: UGSB SARPI N37 BT M737 DF N82 LAPTO A234 MARAT URMM Unmatched points: M737 A234

Route

UGSB SARPI BT DF LAPTO MARAT URMM

ID Type Via Altitude Latitude Longitude Leg Dist Tot Dist Heading (true) Name
O UGSB APT - 0 ft / 0 m 41.60966˚ 41.60032˚ - 0 nm - BATUMI
SARPI FIX - 0 ft / 0 m 41.54889˚ 41.44972˚ 7 nm 7 nm 242° / 242° -
BT NDB - 0 ft / 0 m 42.10000˚ 43.64889˚ 103 nm 111 nm 71° / 72° ALI NDB
DF NDB - 0 ft / 0 m 41.91667˚ 44.56556˚ 42 nm 153 nm 105° / 105° MUKHRANI NDB
LAPTO FIX - 0 ft / 0 m 42.63167˚ 44.19000˚ 46 nm 199 nm 339° / 339° -
MARAT FIX - 0 ft / 0 m 43.84639˚ 43.62028˚ 77 nm 277 nm 341° / 341° -
O URMM APT - 0 ft / 0 m 44.22507˚ 43.08189˚ 32 nm 309 nm 315° / 314° MINERALNYYE VODY

Altitude Profile

Advertisement - Login to hide

Weather


0- 5 10 15 20 25 30 35+ Temperature / ° C

Clouds and Precipitation
Forecast for 2017-12-18 12:00 UTC. Updated 8 minutes ago

Ground ~20,000 ft ~40,000 ft Winds

UGSB

Details ICAO UGSB (BUS)
Name BATUMI
Region Georgia
Timezone Asia/Tbilisi (UTC+4.0)
Stats Elevation 105 ft / 32 m (AMSL)
Location 41.609660° 41.600318°
Runways 1
Magnetic Variation 6.548° E

METAR

UGSB 180900Z 14019KT 9999 FEW028 SCT085 16/02 Q1019 R13/70D NOSIG

Decode

TAF

Not found

Departure Runways

ID Width Length Bearing (true) Bearing (mag) Surface Threshold Offset Overrun Length
13 150 ft / 46 m 7,321 ft / 2,232 m 130.81° 124.26° Asphalt 0 ft / 0 m 690 ft / 210 m
31 150 ft / 46 m 7,321 ft / 2,232 m 310.82° 304.27° Asphalt 0 ft / 0 m 0 ft / 0 m

URMM

Details ICAO URMM (MRV)
Name MINERALNYYE VODY
Region Russia
Timezone Europe/Moscow (UTC+3.0)
Stats Elevation 1,054 ft / 321 m (AMSL)
Location 44.225073° 43.081891°
Runways 1
Magnetic Variation 7.388° E

METAR

URMM 180900Z 11004MPS 9999 BKN013 06/02 Q1018 R12/090070 NOSIG RMK MT OBSC QFE735/0981

Decode

TAF

TAF URMM 180758Z 1809/1909 10003G08MPS 9999 BKN020 TX06/1811Z TN01/1903Z BECMG 1812/1814 BKN011 TEMPO 1814/1907 3100 BR

Decode

Destination Runways

ID Width Length Bearing (true) Bearing (mag) Surface Threshold Offset Overrun Length
12 197 ft / 60 m 12,766 ft / 3,891 m 122.28° 114.89° Concrete 0 ft / 0 m 240 ft / 73 m
30 197 ft / 60 m 12,766 ft / 3,891 m 302.31° 294.92° Concrete 0 ft / 0 m 250 ft / 76 m

Popular Alternatives